createdAt,value
2022-12-01T04:56:47.858Z,18.43
2022-12-01T04:59:14.538Z,22.55
2022-12-01T05:01:41.210Z,23.23
2022-12-01T05:04:11.312Z,21.17
2022-12-01T05:06:38.071Z,19.38
2022-12-01T05:09:04.609Z,18.60
2022-12-01T05:11:32.044Z,25.15
2022-12-01T05:13:59.156Z,22.15
2022-12-01T05:16:28.216Z,18.88
2022-12-01T05:19:16.712Z,22.95
2022-12-01T05:21:44.668Z,20.93
2022-12-01T05:24:12.442Z,19.45
2022-12-01T05:26:39.525Z,19.98
2022-12-01T05:29:06.110Z,21.63
2022-12-01T05:31:32.704Z,20.40
2022-12-01T05:33:59.213Z,20.17
2022-12-01T05:36:26.013Z,21.10
2022-12-01T05:38:52.610Z,17.95
2022-12-01T05:41:19.110Z,23.33
2022-12-01T05:43:45.575Z,19.70
2022-12-01T05:46:12.154Z,17.90
2022-12-01T05:48:38.678Z,21.00
2022-12-01T05:51:10.075Z,20.65
2022-12-01T05:53:36.646Z,20.73
2022-12-01T05:56:03.267Z,20.67
2022-12-01T05:58:29.767Z,20.03
2022-12-01T06:00:59.211Z,20.67
2022-12-01T06:03:25.683Z,18.90
2022-12-01T06:05:52.175Z,17.95
2022-12-01T06:08:18.986Z,19.00
2022-12-01T06:10:46.067Z,24.57
2022-12-01T06:13:12.625Z,17.23
2022-12-01T06:15:39.444Z,24.00
2022-12-01T06:18:06.047Z,21.45
2022-12-01T06:20:32.853Z,20.50
2022-12-01T06:23:00.623Z,21.43
2022-12-01T06:25:27.099Z,19.60
2022-12-01T06:27:57.730Z,22.52
2022-12-01T06:30:24.688Z,17.92
2022-12-01T06:32:51.166Z,21.95
2022-12-01T06:35:17.749Z,19.97
2022-12-01T06:37:44.443Z,23.13
2022-12-01T06:40:11.798Z,21.08
2022-12-01T06:42:41.352Z,22.13
2022-12-01T06:45:08.340Z,19.63
2022-12-01T06:47:43.984Z,27.00
2022-12-01T06:50:13.039Z,19.85
2022-12-01T06:52:39.599Z,20.55
2022-12-01T06:55:06.456Z,18.83
2022-12-01T06:57:33.201Z,23.02
2022-12-01T07:00:00.827Z,23.90
2022-12-01T07:02:27.661Z,22.45
2022-12-01T07:04:54.159Z,19.60
2022-12-01T07:07:20.827Z,21.65
2022-12-01T07:09:47.680Z,22.45
2022-12-01T07:12:14.439Z,19.03
2022-12-01T07:14:42.458Z,21.45
2022-12-01T07:17:12.037Z,25.88
2022-12-01T07:19:38.550Z,22.52
2022-12-01T07:22:05.078Z,23.15
2022-12-01T07:24:31.597Z,23.77
2022-12-01T07:26:58.706Z,21.80
2022-12-01T07:29:25.353Z,22.33
2022-12-01T07:31:51.953Z,22.55
2022-12-01T07:34:20.778Z,20.80
2022-12-01T07:36:47.298Z,22.57
2022-12-01T07:39:13.808Z,20.88
2022-12-01T07:41:40.350Z,21.15
2022-12-01T07:44:07.023Z,21.58
2022-12-01T07:46:33.949Z,26.08
2022-12-01T07:49:00.534Z,21.13
2022-12-01T07:51:27.743Z,24.30
2022-12-01T07:53:55.135Z,31.75
2022-12-01T07:56:22.384Z,28.85
2022-12-01T07:58:48.937Z,30.70
2022-12-01T08:01:19.538Z,33.20
2022-12-01T08:03:48.584Z,32.22
2022-12-01T08:06:15.062Z,28.40
2022-12-01T08:08:41.747Z,25.83
2022-12-01T08:11:12.725Z,29.13
2022-12-01T08:13:39.883Z,26.37
2022-12-01T08:16:08.441Z,28.27
2022-12-01T08:18:36.090Z,32.05
2022-12-01T08:21:03.094Z,30.50
2022-12-01T08:23:29.625Z,33.42
2022-12-01T08:25:57.523Z,32.83
2022-12-01T08:28:24.172Z,34.15
2022-12-01T08:30:50.940Z,33.30
2022-12-01T08:33:17.504Z,26.15
2022-12-01T08:35:44.016Z,31.33
2022-12-01T08:38:10.806Z,30.07
2022-12-01T08:40:37.317Z,31.55
2022-12-01T08:43:05.404Z,33.22
2022-12-01T08:45:31.938Z,37.47
2022-12-01T08:47:59.787Z,28.27
2022-12-01T08:50:27.198Z,31.27
2022-12-01T08:52:54.119Z,35.05
2022-12-01T08:55:21.969Z,28.80
2022-12-01T08:57:48.481Z,29.20
2022-12-01T09:00:15.950Z,34.67
2022-12-01T09:02:42.608Z,33.53
2022-12-01T09:05:09.628Z,35.10
2022-12-01T09:07:36.209Z,33.15
2022-12-01T09:10:02.735Z,31.20
2022-12-01T09:12:29.681Z,31.58
2022-12-01T09:14:56.189Z,31.13
2022-12-01T09:17:23.690Z,30.50
2022-12-01T09:19:50.542Z,32.65
2022-12-01T09:22:17.289Z,30.08
2022-12-01T09:24:43.979Z,28.20
2022-12-01T09:27:10.911Z,29.47
2022-12-01T09:29:37.426Z,28.83
2022-12-01T09:32:04.069Z,25.70
2022-12-01T09:34:30.615Z,22.27
2022-12-01T09:36:58.547Z,30.85
2022-12-01T09:39:25.857Z,29.70
2022-12-01T09:42:08.496Z,25.52
2022-12-01T09:44:45.727Z,21.33
2022-12-01T09:47:25.808Z,19.95
2022-12-01T09:50:04.479Z,19.00
2022-12-01T09:52:39.911Z,17.73
2022-12-01T09:55:12.782Z,19.25
2022-12-01T09:57:40.400Z,19.50
2022-12-01T10:00:19.089Z,17.40
2022-12-01T10:03:06.918Z,18.88
2022-12-01T10:06:18.096Z,17.07
2022-12-01T10:08:36.280Z,20.17
2022-12-01T10:11:29.216Z,21.80
2022-12-01T10:13:55.727Z,20.00
2022-12-01T10:16:46.097Z,18.08
2022-12-01T10:19:21.888Z,20.33
2022-12-01T10:22:16.737Z,22.83
2022-12-01T10:25:23.208Z,20.38
2022-12-01T10:28:05.817Z,23.08
2022-12-01T10:30:39.292Z,21.42
2022-12-01T10:33:24.126Z,16.80
2022-12-01T10:35:50.950Z,21.90
2022-12-01T10:38:37.359Z,20.60
2022-12-01T10:41:04.683Z,17.00
2022-12-01T10:43:38.230Z,18.60
2022-12-01T10:46:25.160Z,17.03
2022-12-01T10:48:54.918Z,19.08
2022-12-01T10:51:22.659Z,15.75
2022-12-01T10:53:49.620Z,20.70
2022-12-01T10:56:18.413Z,18.60
2022-12-01T10:58:50.896Z,17.50
2022-12-01T11:01:24.298Z,18.08
2022-12-01T11:03:56.988Z,21.58
2022-12-01T11:06:28.207Z,18.58
2022-12-01T11:09:00.753Z,21.08
2022-12-01T11:11:40.409Z,20.67
2022-12-01T11:14:19.263Z,21.23
2022-12-01T11:16:47.888Z,33.35
2022-12-01T11:19:31.142Z,23.77
2022-12-01T11:21:59.755Z,22.35
2022-12-01T11:24:57.156Z,21.43
2022-12-01T11:27:26.965Z,21.23
2022-12-01T11:29:59.287Z,22.52
2022-12-01T11:32:39.491Z,21.10
2022-12-01T11:35:23.743Z,20.40
2022-12-01T11:38:21.104Z,19.70
2022-12-01T11:40:48.883Z,21.15
2022-12-01T11:43:36.539Z,20.98
2022-12-01T11:46:05.770Z,22.65
2022-12-01T11:48:36.895Z,21.92
2022-12-01T11:51:09.878Z,22.53
2022-12-01T11:53:41.572Z,19.88
2022-12-01T11:56:28.695Z,19.30
2022-12-01T11:59:09.701Z,19.52
2022-12-01T12:02:09.756Z,22.42
2022-12-01T12:04:43.332Z,22.53
2022-12-01T12:07:40.225Z,21.52
2022-12-01T12:10:37.371Z,24.27
2022-12-01T12:13:23.844Z,20.95
2022-12-01T12:16:03.392Z,22.35
2022-12-01T12:18:32.619Z,20.00
2022-12-01T12:21:34.035Z,24.15
2022-12-01T12:24:31.283Z,24.52
2022-12-01T12:27:00.678Z,25.60
2022-12-01T12:29:41.602Z,20.83
2022-12-01T12:32:36.853Z,24.37
2022-12-01T12:35:36.979Z,19.75
2022-12-01T12:38:37.788Z,19.35
2022-12-01T12:41:25.518Z,20.95
2022-12-01T12:44:12.219Z,25.55
2022-12-01T12:46:57.581Z,19.83
2022-12-01T12:49:42.704Z,20.60
2022-12-01T12:52:51.979Z,19.73
2022-12-01T12:55:38.544Z,23.90
2022-12-01T12:58:25.516Z,18.90
2022-12-01T13:00:59.823Z,20.07
2022-12-01T13:03:35.548Z,20.50
2022-12-01T13:06:39.305Z,19.50
2022-12-01T13:09:32.163Z,19.02
2022-12-01T13:12:06.589Z,19.67
2022-12-01T13:14:34.782Z,22.23
2022-12-01T13:17:20.668Z,22.52
2022-12-01T13:19:48.570Z,22.05
2022-12-01T13:22:17.143Z,26.75
2022-12-01T13:24:43.825Z,18.98
2022-12-01T13:27:10.331Z,20.30
2022-12-01T13:29:43.694Z,18.50
2022-12-01T13:32:30.671Z,21.00
2022-12-01T13:34:57.975Z,20.83
2022-12-01T13:37:42.734Z,19.73
2022-12-01T13:40:20.079Z,20.90
2022-12-01T13:43:17.838Z,19.70
2022-12-01T13:45:44.498Z,21.90
2022-12-01T13:48:39.447Z,21.02
2022-12-01T13:51:06.100Z,20.65
2022-12-01T13:53:37.417Z,16.93
2022-12-01T13:56:03.899Z,17.83
2022-12-01T13:58:33.495Z,16.50
2022-12-01T14:01:22.278Z,18.75
2022-12-01T14:04:02.304Z,18.70
2022-12-01T14:06:38.936Z,20.10
2022-12-01T14:09:13.978Z,18.63
2022-12-01T14:11:40.606Z,18.00
2022-12-01T14:14:13.303Z,18.90
2022-12-01T14:16:50.985Z,18.63
2022-12-01T14:19:45.166Z,15.30
2022-12-01T14:22:31.509Z,20.38
2022-12-01T14:24:58.030Z,22.65
2022-12-01T14:27:34.549Z,21.38
2022-12-01T14:30:39.128Z,18.42
2022-12-01T14:33:39.789Z,20.70
2022-12-01T14:36:09.806Z,19.98
2022-12-01T14:38:36.602Z,20.20
2022-12-01T14:41:08.509Z,17.98
2022-12-01T14:43:53.999Z,18.42
2022-12-01T14:46:23.339Z,18.43
2022-12-01T14:48:50.466Z,23.85
2022-12-01T14:51:25.846Z,20.48
2022-12-01T14:53:52.755Z,18.80
2022-12-01T14:56:20.494Z,22.10
2022-12-01T14:58:59.258Z,16.57
2022-12-01T15:01:31.442Z,22.40
2022-12-01T15:03:59.334Z,20.13
2022-12-01T15:06:27.614Z,20.10
2022-12-01T15:12:00.953Z,20.93
2022-12-01T15:14:33.387Z,24.83
2022-12-01T15:17:00.157Z,17.50
2022-12-01T15:19:35.008Z,18.95
2022-12-01T15:22:13.478Z,23.88
2022-12-01T15:24:40.333Z,21.07
2022-12-01T15:27:24.602Z,19.90
2022-12-01T15:29:51.842Z,17.63
2022-12-01T15:32:20.130Z,20.83
2022-12-01T15:34:48.620Z,20.55
2022-12-01T15:37:17.845Z,27.10
2022-12-01T15:39:53.561Z,30.77
2022-12-01T15:42:27.444Z,24.20
2022-12-01T15:45:02.676Z,21.10
2022-12-01T15:47:46.504Z,22.98
2022-12-01T15:50:31.014Z,22.37
2022-12-01T15:52:58.177Z,24.05
2022-12-01T15:55:28.262Z,22.95
2022-12-01T15:57:54.938Z,20.33
2022-12-01T16:00:22.529Z,22.00
2022-12-01T16:02:52.479Z,25.37
2022-12-01T16:05:22.337Z,25.40
2022-12-01T16:10:36.914Z,21.13
2022-12-01T16:13:41.193Z,20.52
2022-12-01T16:16:35.883Z,24.00
2022-12-01T16:19:23.563Z,28.10
2022-12-01T16:22:00.965Z,24.73
2022-12-01T16:24:33.495Z,25.83
2022-12-01T16:27:03.738Z,21.60
2022-12-01T16:29:45.591Z,20.63
2022-12-01T16:32:21.953Z,22.27
2022-12-01T16:34:50.365Z,19.85
2022-12-01T16:37:17.176Z,18.75
2022-12-01T16:39:43.707Z,23.23
2022-12-01T16:42:21.052Z,22.00
2022-12-01T16:44:48.591Z,28.02
2022-12-01T16:47:17.188Z,23.77
2022-12-01T16:49:43.802Z,19.45
2022-12-01T16:54:57.052Z,19.07
2022-12-01T16:57:23.546Z,17.98
2022-12-01T16:59:50.029Z,18.20
2022-12-01T17:02:16.565Z,23.40
2022-12-01T17:04:43.101Z,20.02
2022-12-01T17:07:09.629Z,22.07
2022-12-01T17:09:36.138Z,23.40
2022-12-01T17:12:02.592Z,22.77
2022-12-01T17:14:29.281Z,20.83
2022-12-01T17:16:57.298Z,25.95
2022-12-01T17:19:23.857Z,20.40
2022-12-01T17:21:50.353Z,22.63
2022-12-01T17:24:19.239Z,22.65
2022-12-01T17:26:46.025Z,24.50
2022-12-01T17:29:12.544Z,23.17
2022-12-01T17:31:39.061Z,22.47
2022-12-01T17:34:05.628Z,19.35
2022-12-01T17:36:32.128Z,23.42
2022-12-01T17:38:58.802Z,21.13
2022-12-01T17:41:32.126Z,19.85
2022-12-01T17:43:58.970Z,23.27
2022-12-01T17:46:25.757Z,20.17
2022-12-01T17:48:52.344Z,22.27
2022-12-01T17:51:19.090Z,24.90
2022-12-01T17:53:45.679Z,21.48
2022-12-01T17:56:14.903Z,25.40
2022-12-01T17:58:42.073Z,21.52
2022-12-01T18:01:16.809Z,21.25
2022-12-01T18:03:43.370Z,23.40
2022-12-01T18:06:09.963Z,24.20
2022-12-01T18:08:36.938Z,23.87
2022-12-01T18:11:09.846Z,21.35
2022-12-01T18:13:41.469Z,20.67
2022-12-01T18:16:12.979Z,23.38
2022-12-01T18:18:39.589Z,25.77
2022-12-01T18:21:07.610Z,26.10
2022-12-01T18:23:34.472Z,24.10
2022-12-01T18:26:06.403Z,28.23
2022-12-01T18:28:35.811Z,24.45
2022-12-01T18:31:13.289Z,29.98
2022-12-01T18:33:41.281Z,24.77
2022-12-01T18:36:34.910Z,27.13
2022-12-01T18:39:02.316Z,24.05
2022-12-01T18:41:29.175Z,26.77
2022-12-01T18:43:55.800Z,25.17
2022-12-01T18:46:22.502Z,27.13
2022-12-01T18:49:00.806Z,23.40
2022-12-01T18:51:27.854Z,26.27
2022-12-01T18:53:55.935Z,21.38
2022-12-01T18:56:22.989Z,22.58
2022-12-01T18:59:01.439Z,25.87
2022-12-01T19:01:32.679Z,25.02
2022-12-01T19:03:59.942Z,24.65
2022-12-01T19:06:27.697Z,26.00
2022-12-01T19:08:54.490Z,29.67
2022-12-01T19:11:21.277Z,25.00
2022-12-01T19:13:48.122Z,25.20
2022-12-01T19:16:17.051Z,26.30
2022-12-01T19:18:44.163Z,26.70
2022-12-01T19:21:12.755Z,24.05
2022-12-01T19:23:39.949Z,27.13
2022-12-01T19:26:08.789Z,27.65
2022-12-01T19:28:36.097Z,27.23
2022-12-01T19:31:07.708Z,25.67
2022-12-01T19:33:34.188Z,31.10
2022-12-01T19:36:27.757Z,22.27
2022-12-01T19:38:57.624Z,30.15
2022-12-01T19:41:25.313Z,26.48
2022-12-01T19:43:52.784Z,26.27
2022-12-01T19:46:22.306Z,24.38
2022-12-01T19:48:56.770Z,26.13
2022-12-01T19:51:26.441Z,24.17
2022-12-01T19:53:53.973Z,26.25
2022-12-01T19:56:20.726Z,24.38
2022-12-01T19:58:47.249Z,28.65
2022-12-01T20:01:16.044Z,24.13
2022-12-01T20:03:45.476Z,28.67
2022-12-01T20:06:14.396Z,23.88
2022-12-01T20:08:41.195Z,23.63
2022-12-01T20:11:08.255Z,23.95
2022-12-01T20:13:37.057Z,23.57
2022-12-01T20:16:12.534Z,24.10
2022-12-01T20:18:40.280Z,23.75
2022-12-01T20:21:09.561Z,25.88
2022-12-01T20:23:36.656Z,26.08
2022-12-01T20:26:05.905Z,26.83
2022-12-01T20:28:33.162Z,27.45
2022-12-01T20:31:00.034Z,24.30
2022-12-01T20:33:27.399Z,23.63
2022-12-01T20:35:53.984Z,27.30
2022-12-01T20:38:27.025Z,30.70
2022-12-01T20:40:53.853Z,27.98
2022-12-01T20:43:20.298Z,27.95
2022-12-01T20:45:46.929Z,29.70
2022-12-01T20:48:13.774Z,30.20
2022-12-01T20:50:40.372Z,29.70
2022-12-01T20:53:06.900Z,30.52
2022-12-01T20:55:35.691Z,27.80
2022-12-01T20:58:03.775Z,28.05
2022-12-01T21:00:31.221Z,29.65
2022-12-01T21:02:57.737Z,31.00
2022-12-01T21:05:25.410Z,28.77
